sensor_id;sensor_type;location;lat;lon;timestamp;P1;durP1;ratioP1;P2;durP2;ratioP2
58384;SDS011;44185;47.844;8.966;2023-04-24T00:00:50;1.38;;;0.98;;
58384;SDS011;44185;47.844;8.966;2023-04-24T00:03:17;2.15;;;0.80;;
58384;SDS011;44185;47.844;8.966;2023-04-24T00:05:43;1.60;;;0.63;;
58384;SDS011;44185;47.844;8.966;2023-04-24T00:08:08;1.60;;;1.10;;
58384;SDS011;44185;47.844;8.966;2023-04-24T00:10:34;2.47;;;1.13;;
58384;SDS011;44185;47.844;8.966;2023-04-24T00:12:59;1.50;;;1.13;;
58384;SDS011;44185;47.844;8.966;2023-04-24T00:15:24;2.40;;;0.90;;
58384;SDS011;44185;47.844;8.966;2023-04-24T00:17:50;0.88;;;0.88;;
58384;SDS011;44185;47.844;8.966;2023-04-24T00:20:17;2.00;;;1.10;;
58384;SDS011;44185;47.844;8.966;2023-04-24T00:22:42;1.67;;;0.88;;
58384;SDS011;44185;47.844;8.966;2023-04-24T00:25:08;1.00;;;1.00;;
58384;SDS011;44185;47.844;8.966;2023-04-24T00:27:34;4.88;;;1.55;;
58384;SDS011;44185;47.844;8.966;2023-04-24T00:29:59;1.83;;;1.15;;
58384;SDS011;44185;47.844;8.966;2023-04-24T00:32:24;1.00;;;0.80;;
58384;SDS011;44185;47.844;8.966;2023-04-24T00:34:50;0.63;;;0.63;;
58384;SDS011;44185;47.844;8.966;2023-04-24T00:37:17;1.60;;;0.88;;
58384;SDS011;44185;47.844;8.966;2023-04-24T00:39:42;0.98;;;0.65;;
58384;SDS011;44185;47.844;8.966;2023-04-24T00:42:07;0.98;;;0.80;;
58384;SDS011;44185;47.844;8.966;2023-04-24T00:44:33;1.58;;;1.02;;
58384;SDS011;44185;47.844;8.966;2023-04-24T00:46:58;0.95;;;0.85;;
58384;SDS011;44185;47.844;8.966;2023-04-24T00:49:24;2.63;;;1.42;;
58384;SDS011;44185;47.844;8.966;2023-04-24T00:51:50;3.80;;;1.40;;
58384;SDS011;44185;47.844;8.966;2023-04-24T00:54:16;1.42;;;1.30;;
58384;SDS011;44185;47.844;8.966;2023-04-24T00:56:42;1.50;;;1.02;;
58384;SDS011;44185;47.844;8.966;2023-04-24T00:59:09;1.08;;;0.98;;
58384;SDS011;44185;47.844;8.966;2023-04-24T01:01:35;2.08;;;1.08;;
58384;SDS011;44185;47.844;8.966;2023-04-24T01:04:01;1.20;;;1.10;;
58384;SDS011;44185;47.844;8.966;2023-04-24T01:06:27;3.28;;;1.60;;
58384;SDS011;44185;47.844;8.966;2023-04-24T01:08:53;3.22;;;1.38;;
58384;SDS011;44185;47.844;8.966;2023-04-24T01:11:21;1.95;;;1.38;;
58384;SDS011;44185;47.844;8.966;2023-04-24T01:13:46;4.38;;;1.23;;
58384;SDS011;44185;47.844;8.966;2023-04-24T01:16:12;1.08;;;1.08;;
58384;SDS011;44185;47.844;8.966;2023-04-24T01:18:38;1.95;;;1.30;;
58384;SDS011;44185;47.844;8.966;2023-04-24T01:21:04;2.17;;;1.38;;
58384;SDS011;44185;47.844;8.966;2023-04-24T01:23:34;2.45;;;1.17;;
58384;SDS011;44185;47.844;8.966;2023-04-24T01:25:59;1.50;;;1.38;;
58384;SDS011;44185;47.844;8.966;2023-04-24T01:28:25;1.50;;;1.20;;
58384;SDS011;44185;47.844;8.966;2023-04-24T01:30:50;1.13;;;1.08;;
58384;SDS011;44185;47.844;8.966;2023-04-24T01:33:16;2.97;;;1.40;;
58384;SDS011;44185;47.844;8.966;2023-04-24T01:35:42;1.60;;;1.40;;
58384;SDS011;44185;47.844;8.966;2023-04-24T01:38:07;2.30;;;1.27;;
58384;SDS011;44185;47.844;8.966;2023-04-24T01:40:34;2.10;;;1.67;;
58384;SDS011;44185;47.844;8.966;2023-04-24T01:43:00;3.08;;;1.52;;
58384;SDS011;44185;47.844;8.966;2023-04-24T01:45:25;1.90;;;1.70;;
58384;SDS011;44185;47.844;8.966;2023-04-24T01:47:51;2.78;;;1.50;;
58384;SDS011;44185;47.844;8.966;2023-04-24T01:50:17;2.72;;;1.60;;
58384;SDS011;44185;47.844;8.966;2023-04-24T01:52:42;1.85;;;1.50;;
58384;SDS011;44185;47.844;8.966;2023-04-24T01:55:09;2.08;;;1.38;;
58384;SDS011;44185;47.844;8.966;2023-04-24T01:57:36;1.67;;;1.58;;
58384;SDS011;44185;47.844;8.966;2023-04-24T02:00:02;1.35;;;1.13;;
58384;SDS011;44185;47.844;8.966;2023-04-24T02:02:28;1.60;;;1.50;;
58384;SDS011;44185;47.844;8.966;2023-04-24T02:04:53;3.38;;;1.50;;
58384;SDS011;44185;47.844;8.966;2023-04-24T02:07:19;3.10;;;1.42;;
58384;SDS011;44185;47.844;8.966;2023-04-24T02:09:44;2.50;;;1.35;;
58384;SDS011;44185;47.844;8.966;2023-04-24T02:12:10;1.65;;;1.40;;
58384;SDS011;44185;47.844;8.966;2023-04-24T02:14:36;2.88;;;1.50;;
58384;SDS011;44185;47.844;8.966;2023-04-24T02:17:02;3.88;;;1.10;;
58384;SDS011;44185;47.844;8.966;2023-04-24T02:19:28;1.60;;;1.00;;
58384;SDS011;44185;47.844;8.966;2023-04-24T02:21:53;1.88;;;1.05;;
58384;SDS011;44185;47.844;8.966;2023-04-24T02:24:19;1.30;;;0.95;;
58384;SDS011;44185;47.844;8.966;2023-04-24T02:26:44;1.83;;;1.00;;
58384;SDS011;44185;47.844;8.966;2023-04-24T02:29:09;0.98;;;0.90;;
58384;SDS011;44185;47.844;8.966;2023-04-24T02:31:36;1.40;;;1.25;;
58384;SDS011;44185;47.844;8.966;2023-04-24T02:34:02;1.80;;;1.05;;
58384;SDS011;44185;47.844;8.966;2023-04-24T02:36:27;2.25;;;0.90;;
58384;SDS011;44185;47.844;8.966;2023-04-24T02:38:53;1.30;;;0.82;;
58384;SDS011;44185;47.844;8.966;2023-04-24T02:41:19;1.17;;;1.08;;
58384;SDS011;44185;47.844;8.966;2023-04-24T02:43:44;1.38;;;0.80;;
58384;SDS011;44185;47.844;8.966;2023-04-24T02:46:09;0.82;;;0.82;;
58384;SDS011;44185;47.844;8.966;2023-04-24T02:48:36;0.80;;;0.77;;
58384;SDS011;44185;47.844;8.966;2023-04-24T02:51:02;2.10;;;1.15;;
58384;SDS011;44185;47.844;8.966;2023-04-24T02:53:28;0.95;;;0.60;;
58384;SDS011;44185;47.844;8.966;2023-04-24T02:55:53;0.70;;;0.70;;
58384;SDS011;44185;47.844;8.966;2023-04-24T02:58:19;1.55;;;0.70;;
58384;SDS011;44185;47.844;8.966;2023-04-24T03:00:44;2.17;;;0.50;;
58384;SDS011;44185;47.844;8.966;2023-04-24T03:03:10;1.50;;;0.70;;
58384;SDS011;44185;47.844;8.966;2023-04-24T03:05:37;0.80;;;0.68;;
58384;SDS011;44185;47.844;8.966;2023-04-24T03:08:02;0.45;;;0.45;;
58384;SDS011;44185;47.844;8.966;2023-04-24T03:10:28;0.95;;;0.82;;
58384;SDS011;44185;47.844;8.966;2023-04-24T03:12:53;1.35;;;0.85;;
58384;SDS011;44185;47.844;8.966;2023-04-24T03:15:19;0.90;;;0.90;;
58384;SDS011;44185;47.844;8.966;2023-04-24T03:17:44;0.68;;;0.68;;
58384;SDS011;44185;47.844;8.966;2023-04-24T03:20:10;0.73;;;0.73;;
58384;SDS011;44185;47.844;8.966;2023-04-24T03:22:36;0.55;;;0.55;;
58384;SDS011;44185;47.844;8.966;2023-04-24T03:25:02;0.70;;;0.70;;
58384;SDS011;44185;47.844;8.966;2023-04-24T03:27:29;1.00;;;0.65;;
58384;SDS011;44185;47.844;8.966;2023-04-24T03:29:54;0.98;;;0.20;;
58384;SDS011;44185;47.844;8.966;2023-04-24T03:32:19;0.75;;;0.43;;
58384;SDS011;44185;47.844;8.966;2023-04-24T03:34:45;2.63;;;0.60;;
58384;SDS011;44185;47.844;8.966;2023-04-24T03:37:10;0.98;;;0.45;;
58384;SDS011;44185;47.844;8.966;2023-04-24T03:39:37;0.20;;;0.20;;
58384;SDS011;44185;47.844;8.966;2023-04-24T03:42:03;1.85;;;0.60;;
58384;SDS011;44185;47.844;8.966;2023-04-24T03:44:28;0.52;;;0.50;;
58384;SDS011;44185;47.844;8.966;2023-04-24T03:46:54;0.50;;;0.50;;
58384;SDS011;44185;47.844;8.966;2023-04-24T03:49:19;0.95;;;0.43;;
58384;SDS011;44185;47.844;8.966;2023-04-24T03:51:44;1.30;;;0.30;;
58384;SDS011;44185;47.844;8.966;2023-04-24T03:54:10;0.60;;;0.60;;
58384;SDS011;44185;47.844;8.966;2023-04-24T03:56:37;0.95;;;0.50;;
58384;SDS011;44185;47.844;8.966;2023-04-24T03:59:02;0.70;;;0.70;;
58384;SDS011;44185;47.844;8.966;2023-04-24T04:01:27;0.38;;;0.38;;
58384;SDS011;44185;47.844;8.966;2023-04-24T04:03:53;0.47;;;0.47;;
58384;SDS011;44185;47.844;8.966;2023-04-24T04:06:19;0.65;;;0.65;;
58384;SDS011;44185;47.844;8.966;2023-04-24T04:08:44;0.52;;;0.30;;
58384;SDS011;44185;47.844;8.966;2023-04-24T04:11:10;1.40;;;0.50;;
58384;SDS011;44185;47.844;8.966;2023-04-24T04:13:36;0.47;;;0.47;;
58384;SDS011;44185;47.844;8.966;2023-04-24T04:16:02;0.65;;;0.65;;
58384;SDS011;44185;47.844;8.966;2023-04-24T04:18:27;0.52;;;0.52;;
58384;SDS011;44185;47.844;8.966;2023-04-24T04:20:53;0.68;;;0.50;;
58384;SDS011;44185;47.844;8.966;2023-04-24T04:23:19;0.52;;;0.52;;
58384;SDS011;44185;47.844;8.966;2023-04-24T04:25:44;0.40;;;0.40;;
58384;SDS011;44185;47.844;8.966;2023-04-24T04:28:09;0.73;;;0.60;;
58384;SDS011;44185;47.844;8.966;2023-04-24T04:30:36;0.55;;;0.55;;
58384;SDS011;44185;47.844;8.966;2023-04-24T04:33:02;2.10;;;0.93;;
58384;SDS011;44185;47.844;8.966;2023-04-24T04:35:27;0.57;;;0.57;;
58384;SDS011;44185;47.844;8.966;2023-04-24T04:37:53;0.50;;;0.50;;
58384;SDS011;44185;47.844;8.966;2023-04-24T04:40:19;0.75;;;0.52;;
58384;SDS011;44185;47.844;8.966;2023-04-24T04:42:44;0.28;;;0.28;;
58384;SDS011;44185;47.844;8.966;2023-04-24T04:45:10;0.47;;;0.45;;
58384;SDS011;44185;47.844;8.966;2023-04-24T04:47:37;0.63;;;0.28;;
58384;SDS011;44185;47.844;8.966;2023-04-24T04:50:02;0.60;;;0.40;;
58384;SDS011;44185;47.844;8.966;2023-04-24T04:52:28;0.75;;;0.60;;
58384;SDS011;44185;47.844;8.966;2023-04-24T04:54:54;3.53;;;0.82;;
58384;SDS011;44185;47.844;8.966;2023-04-24T04:57:20;0.75;;;0.65;;
58384;SDS011;44185;47.844;8.966;2023-04-24T04:59:45;1.00;;;1.00;;
58384;SDS011;44185;47.844;8.966;2023-04-24T05:02:11;2.88;;;1.20;;
58384;SDS011;44185;47.844;8.966;2023-04-24T05:04:38;0.88;;;0.88;;
58384;SDS011;44185;47.844;8.966;2023-04-24T05:07:03;1.10;;;1.00;;
58384;SDS011;44185;47.844;8.966;2023-04-24T05:09:28;1.17;;;0.90;;
58384;SDS011;44185;47.844;8.966;2023-04-24T05:11:54;0.75;;;0.75;;
58384;SDS011;44185;47.844;8.966;2023-04-24T05:14:19;0.85;;;0.85;;
58384;SDS011;44185;47.844;8.966;2023-04-24T05:16:45;2.55;;;1.50;;
58384;SDS011;44185;47.844;8.966;2023-04-24T05:19:10;2.10;;;1.70;;
58384;SDS011;44185;47.844;8.966;2023-04-24T05:21:37;1.60;;;1.00;;
58384;SDS011;44185;47.844;8.966;2023-04-24T05:24:03;1.67;;;1.25;;
58384;SDS011;44185;47.844;8.966;2023-04-24T05:26:28;1.35;;;0.90;;
58384;SDS011;44185;47.844;8.966;2023-04-24T05:28:54;1.75;;;1.20;;
58384;SDS011;44185;47.844;8.966;2023-04-24T05:31:19;4.25;;;1.98;;
58384;SDS011;44185;47.844;8.966;2023-04-24T05:33:45;3.92;;;1.65;;
58384;SDS011;44185;47.844;8.966;2023-04-24T05:36:10;0.82;;;0.75;;
58384;SDS011;44185;47.844;8.966;2023-04-24T05:38:37;1.02;;;1.02;;
58384;SDS011;44185;47.844;8.966;2023-04-24T05:41:03;1.25;;;1.20;;
58384;SDS011;44185;47.844;8.966;2023-04-24T05:43:28;1.15;;;0.93;;
58384;SDS011;44185;47.844;8.966;2023-04-24T05:45:53;0.22;;;0.22;;
58384;SDS011;44185;47.844;8.966;2023-04-24T05:48:19;0.60;;;0.35;;
58384;SDS011;44185;47.844;8.966;2023-04-24T05:50:44;1.42;;;1.35;;
58384;SDS011;44185;47.844;8.966;2023-04-24T05:53:10;1.85;;;0.90;;
58384;SDS011;44185;47.844;8.966;2023-04-24T05:55:36;0.80;;;0.40;;
58384;SDS011;44185;47.844;8.966;2023-04-24T05:58:02;1.35;;;1.25;;
58384;SDS011;44185;47.844;8.966;2023-04-24T06:00:27;2.65;;;0.93;;
58384;SDS011;44185;47.844;8.966;2023-04-24T06:02:53;1.30;;;1.00;;
58384;SDS011;44185;47.844;8.966;2023-04-24T06:05:19;1.67;;;1.17;;
58384;SDS011;44185;47.844;8.966;2023-04-24T06:07:44;1.50;;;1.40;;
58384;SDS011;44185;47.844;8.966;2023-04-24T06:10:10;1.33;;;0.93;;
58384;SDS011;44185;47.844;8.966;2023-04-24T06:12:37;2.20;;;0.88;;
58384;SDS011;44185;47.844;8.966;2023-04-24T06:15:02;2.60;;;1.60;;
58384;SDS011;44185;47.844;8.966;2023-04-24T06:17:28;1.40;;;1.10;;
58384;SDS011;44185;47.844;8.966;2023-04-24T06:19:54;1.10;;;1.00;;
58384;SDS011;44185;47.844;8.966;2023-04-24T06:22:19;1.02;;;0.98;;
58384;SDS011;44185;47.844;8.966;2023-04-24T06:24:45;1.60;;;1.10;;
58384;SDS011;44185;47.844;8.966;2023-04-24T06:27:10;1.42;;;1.15;;
58384;SDS011;44185;47.844;8.966;2023-04-24T06:29:37;1.00;;;1.00;;
58384;SDS011;44185;47.844;8.966;2023-04-24T06:32:02;1.27;;;0.90;;
58384;SDS011;44185;47.844;8.966;2023-04-24T06:34:28;1.80;;;1.35;;
58384;SDS011;44185;47.844;8.966;2023-04-24T06:36:53;1.40;;;1.30;;
58384;SDS011;44185;47.844;8.966;2023-04-24T06:39:19;2.10;;;1.48;;
58384;SDS011;44185;47.844;8.966;2023-04-24T06:41:44;2.22;;;1.45;;
58384;SDS011;44185;47.844;8.966;2023-04-24T06:44:10;2.90;;;1.80;;
58384;SDS011;44185;47.844;8.966;2023-04-24T06:46:37;1.20;;;1.20;;
58384;SDS011;44185;47.844;8.966;2023-04-24T06:49:02;4.13;;;1.23;;
58384;SDS011;44185;47.844;8.966;2023-04-24T06:51:28;2.85;;;1.50;;
58384;SDS011;44185;47.844;8.966;2023-04-24T06:53:54;1.55;;;1.40;;
58384;SDS011;44185;47.844;8.966;2023-04-24T06:56:20;3.30;;;1.63;;
58384;SDS011;44185;47.844;8.966;2023-04-24T06:58:45;1.55;;;1.45;;
58384;SDS011;44185;47.844;8.966;2023-04-24T07:01:11;2.55;;;1.80;;
58384;SDS011;44185;47.844;8.966;2023-04-24T07:03:38;2.83;;;1.92;;
58384;SDS011;44185;47.844;8.966;2023-04-24T07:06:03;2.08;;;1.45;;
58384;SDS011;44185;47.844;8.966;2023-04-24T07:08:29;3.15;;;2.20;;
58384;SDS011;44185;47.844;8.966;2023-04-24T07:10:55;1.85;;;1.75;;
58384;SDS011;44185;47.844;8.966;2023-04-24T07:13:20;2.60;;;2.08;;
58384;SDS011;44185;47.844;8.966;2023-04-24T07:15:46;1.92;;;1.83;;
58384;SDS011;44185;47.844;8.966;2023-04-24T07:18:11;2.05;;;1.35;;
58384;SDS011;44185;47.844;8.966;2023-04-24T07:20:38;2.75;;;1.55;;
58384;SDS011;44185;47.844;8.966;2023-04-24T07:23:03;1.67;;;1.58;;
58384;SDS011;44185;47.844;8.966;2023-04-24T07:25:29;2.92;;;1.90;;
58384;SDS011;44185;47.844;8.966;2023-04-24T07:27:54;6.78;;;3.70;;
58384;SDS011;44185;47.844;8.966;2023-04-24T07:30:20;2.00;;;1.70;;
58384;SDS011;44185;47.844;8.966;2023-04-24T07:32:45;1.60;;;1.50;;
58384;SDS011;44185;47.844;8.966;2023-04-24T07:35:11;2.22;;;1.75;;
58384;SDS011;44185;47.844;8.966;2023-04-24T07:37:38;2.80;;;1.52;;
58384;SDS011;44185;47.844;8.966;2023-04-24T07:40:03;4.25;;;1.63;;
58384;SDS011;44185;47.844;8.966;2023-04-24T07:42:30;1.60;;;1.50;;
58384;SDS011;44185;47.844;8.966;2023-04-24T07:44:55;3.75;;;1.55;;
58384;SDS011;44185;47.844;8.966;2023-04-24T07:47:20;3.03;;;1.77;;
58384;SDS011;44185;47.844;8.966;2023-04-24T07:49:46;3.28;;;1.70;;
58384;SDS011;44185;47.844;8.966;2023-04-24T07:52:11;2.08;;;1.73;;
58384;SDS011;44185;47.844;8.966;2023-04-24T07:54:38;1.83;;;1.70;;
58384;SDS011;44185;47.844;8.966;2023-04-24T07:57:04;3.03;;;1.77;;
58384;SDS011;44185;47.844;8.966;2023-04-24T07:59:29;1.85;;;1.73;;
58384;SDS011;44185;47.844;8.966;2023-04-24T08:01:55;1.88;;;1.52;;
58384;SDS011;44185;47.844;8.966;2023-04-24T08:04:20;2.00;;;1.80;;
58384;SDS011;44185;47.844;8.966;2023-04-24T08:06:46;4.40;;;1.65;;
58384;SDS011;44185;47.844;8.966;2023-04-24T08:09:12;2.50;;;1.73;;
58384;SDS011;44185;47.844;8.966;2023-04-24T08:11:39;2.25;;;1.40;;
58384;SDS011;44185;47.844;8.966;2023-04-24T08:14:04;1.98;;;1.77;;
58384;SDS011;44185;47.844;8.966;2023-04-24T08:16:29;2.85;;;1.52;;
58384;SDS011;44185;47.844;8.966;2023-04-24T08:18:55;1.67;;;1.52;;
58384;SDS011;44185;47.844;8.966;2023-04-24T08:21:20;2.38;;;1.30;;
58384;SDS011;44185;47.844;8.966;2023-04-24T08:23:46;2.28;;;1.70;;
58384;SDS011;44185;47.844;8.966;2023-04-24T08:26:11;1.23;;;1.13;;
58384;SDS011;44185;47.844;8.966;2023-04-24T08:28:38;1.20;;;1.10;;
58384;SDS011;44185;47.844;8.966;2023-04-24T08:31:04;2.70;;;2.03;;
58384;SDS011;44185;47.844;8.966;2023-04-24T08:33:30;1.95;;;1.35;;
58384;SDS011;44185;47.844;8.966;2023-04-24T08:35:55;3.95;;;1.85;;
58384;SDS011;44185;47.844;8.966;2023-04-24T08:38:20;4.25;;;1.90;;
58384;SDS011;44185;47.844;8.966;2023-04-24T08:40:46;1.48;;;1.45;;
58384;SDS011;44185;47.844;8.966;2023-04-24T08:43:12;3.08;;;1.40;;
58384;SDS011;44185;47.844;8.966;2023-04-24T08:45:40;2.95;;;1.02;;
58384;SDS011;44185;47.844;8.966;2023-04-24T08:48:05;2.17;;;1.45;;
58384;SDS011;44185;47.844;8.966;2023-04-24T08:50:32;3.00;;;1.20;;
58384;SDS011;44185;47.844;8.966;2023-04-24T08:52:58;1.42;;;1.33;;
58384;SDS011;44185;47.844;8.966;2023-04-24T08:55:24;1.08;;;1.08;;
58384;SDS011;44185;47.844;8.966;2023-04-24T08:57:50;1.30;;;1.30;;
58384;SDS011;44185;47.844;8.966;2023-04-24T09:00:16;1.70;;;1.38;;
58384;SDS011;44185;47.844;8.966;2023-04-24T09:02:44;1.48;;;1.38;;
58384;SDS011;44185;47.844;8.966;2023-04-24T09:05:12;1.77;;;1.57;;
58384;SDS011;44185;47.844;8.966;2023-04-24T09:07:38;2.63;;;1.60;;
58384;SDS011;44185;47.844;8.966;2023-04-24T09:10:07;1.60;;;1.42;;
58384;SDS011;44185;47.844;8.966;2023-04-24T09:12:32;1.60;;;1.42;;
58384;SDS011;44185;47.844;8.966;2023-04-24T09:14:59;1.52;;;1.30;;
58384;SDS011;44185;47.844;8.966;2023-04-24T09:17:25;1.63;;;1.33;;
58384;SDS011;44185;47.844;8.966;2023-04-24T09:19:52;1.83;;;1.73;;
58384;SDS011;44185;47.844;8.966;2023-04-24T09:22:17;2.47;;;1.80;;
58384;SDS011;44185;47.844;8.966;2023-04-24T09:24:44;5.22;;;2.20;;
58384;SDS011;44185;47.844;8.966;2023-04-24T09:27:10;4.63;;;2.58;;
58384;SDS011;44185;47.844;8.966;2023-04-24T09:29:36;3.15;;;2.10;;
58384;SDS011;44185;47.844;8.966;2023-04-24T09:32:11;1.45;;;1.33;;
58384;SDS011;44185;47.844;8.966;2023-04-24T09:34:43;2.03;;;1.83;;
58384;SDS011;44185;47.844;8.966;2023-04-24T09:37:13;1.70;;;1.33;;
58384;SDS011;44185;47.844;8.966;2023-04-24T09:40:06;3.85;;;1.60;;
58384;SDS011;44185;47.844;8.966;2023-04-24T09:42:32;1.95;;;1.40;;
58384;SDS011;44185;47.844;8.966;2023-04-24T09:44:58;1.63;;;1.52;;
58384;SDS011;44185;47.844;8.966;2023-04-24T09:47:23;1.83;;;1.35;;
58384;SDS011;44185;47.844;8.966;2023-04-24T09:49:49;1.55;;;1.35;;
58384;SDS011;44185;47.844;8.966;2023-04-24T09:52:15;2.08;;;1.88;;
58384;SDS011;44185;47.844;8.966;2023-04-24T09:54:41;4.15;;;1.45;;
58384;SDS011;44185;47.844;8.966;2023-04-24T09:57:07;3.10;;;1.95;;
58384;SDS011;44185;47.844;8.966;2023-04-24T09:59:33;1.90;;;1.63;;
58384;SDS011;44185;47.844;8.966;2023-04-24T10:01:58;2.22;;;2.03;;
58384;SDS011;44185;47.844;8.966;2023-04-24T10:04:25;2.10;;;1.40;;
58384;SDS011;44185;47.844;8.966;2023-04-24T10:06:52;1.67;;;1.35;;
58384;SDS011;44185;47.844;8.966;2023-04-24T10:09:22;2.65;;;1.25;;
58384;SDS011;44185;47.844;8.966;2023-04-24T10:11:49;1.60;;;1.50;;
58384;SDS011;44185;47.844;8.966;2023-04-24T10:14:16;1.38;;;1.27;;
58384;SDS011;44185;47.844;8.966;2023-04-24T10:16:43;1.35;;;1.20;;
58384;SDS011;44185;47.844;8.966;2023-04-24T10:19:09;1.55;;;1.45;;
58384;SDS011;44185;47.844;8.966;2023-04-24T10:21:35;1.42;;;1.33;;
58384;SDS011;44185;47.844;8.966;2023-04-24T10:24:01;2.88;;;1.80;;
58384;SDS011;44185;47.844;8.966;2023-04-24T10:26:28;2.72;;;1.30;;
58384;SDS011;44185;47.844;8.966;2023-04-24T10:28:53;2.92;;;1.50;;
58384;SDS011;44185;47.844;8.966;2023-04-24T10:31:19;1.38;;;1.27;;
58384;SDS011;44185;47.844;8.966;2023-04-24T10:33:46;1.90;;;1.65;;
58384;SDS011;44185;47.844;8.966;2023-04-24T10:36:12;2.08;;;1.30;;
58384;SDS011;44185;47.844;8.966;2023-04-24T10:38:39;3.00;;;1.67;;
58384;SDS011;44185;47.844;8.966;2023-04-24T10:41:08;1.40;;;1.30;;
58384;SDS011;44185;47.844;8.966;2023-04-24T10:43:37;2.15;;;1.40;;
58384;SDS011;44185;47.844;8.966;2023-04-24T10:46:05;1.23;;;1.20;;
58384;SDS011;44185;47.844;8.966;2023-04-24T10:48:31;1.70;;;1.30;;
58384;SDS011;44185;47.844;8.966;2023-04-24T10:50:57;1.63;;;1.50;;
58384;SDS011;44185;47.844;8.966;2023-04-24T10:53:24;2.15;;;1.20;;
58384;SDS011;44185;47.844;8.966;2023-04-24T10:55:56;2.17;;;1.20;;
58384;SDS011;44185;47.844;8.966;2023-04-24T10:58:24;2.33;;;1.58;;
58384;SDS011;44185;47.844;8.966;2023-04-24T11:01:01;1.83;;;1.50;;
58384;SDS011;44185;47.844;8.966;2023-04-24T11:03:27;1.40;;;1.30;;
58384;SDS011;44185;47.844;8.966;2023-04-24T11:05:57;1.25;;;1.20;;
58384;SDS011;44185;47.844;8.966;2023-04-24T11:08:28;2.28;;;1.60;;
58384;SDS011;44185;47.844;8.966;2023-04-24T11:10:58;2.22;;;1.40;;
58384;SDS011;44185;47.844;8.966;2023-04-24T11:13:27;2.13;;;1.70;;
58384;SDS011;44185;47.844;8.966;2023-04-24T11:16:15;1.58;;;1.20;;
58384;SDS011;44185;47.844;8.966;2023-04-24T11:18:49;2.05;;;1.38;;
58384;SDS011;44185;47.844;8.966;2023-04-24T11:21:16;0.95;;;0.95;;
58384;SDS011;44185;47.844;8.966;2023-04-24T11:23:42;3.17;;;1.60;;
58384;SDS011;44185;47.844;8.966;2023-04-24T11:26:11;1.52;;;1.42;;
58384;SDS011;44185;47.844;8.966;2023-04-24T11:28:37;4.77;;;1.80;;
58384;SDS011;44185;47.844;8.966;2023-04-24T11:34:07;1.70;;;1.60;;
58384;SDS011;44185;47.844;8.966;2023-04-24T11:36:33;2.55;;;1.50;;
58384;SDS011;44185;47.844;8.966;2023-04-24T11:38:59;3.60;;;1.45;;
58384;SDS011;44185;47.844;8.966;2023-04-24T11:41:26;1.40;;;1.30;;
58384;SDS011;44185;47.844;8.966;2023-04-24T11:43:52;2.72;;;1.70;;
58384;SDS011;44185;47.844;8.966;2023-04-24T11:46:20;1.92;;;1.70;;
58384;SDS011;44185;47.844;8.966;2023-04-24T11:48:47;2.28;;;1.83;;
58384;SDS011;44185;47.844;8.966;2023-04-24T11:51:12;3.47;;;1.75;;
58384;SDS011;44185;47.844;8.966;2023-04-24T11:53:38;1.83;;;1.73;;
58384;SDS011;44185;47.844;8.966;2023-04-24T11:56:04;2.97;;;1.83;;
58384;SDS011;44185;47.844;8.966;2023-04-24T11:58:34;6.28;;;2.17;;
58384;SDS011;44185;47.844;8.966;2023-04-24T12:00:59;2.13;;;1.95;;
58384;SDS011;44185;47.844;8.966;2023-04-24T12:03:25;2.67;;;1.70;;
58384;SDS011;44185;47.844;8.966;2023-04-24T12:05:52;2.95;;;1.70;;
58384;SDS011;44185;47.844;8.966;2023-04-24T12:08:26;2.63;;;1.88;;
58384;SDS011;44185;47.844;8.966;2023-04-24T12:10:52;2.70;;;1.63;;
58384;SDS011;44185;47.844;8.966;2023-04-24T12:13:17;3.75;;;1.80;;
58384;SDS011;44185;47.844;8.966;2023-04-24T12:15:43;2.15;;;1.70;;
58384;SDS011;44185;47.844;8.966;2023-04-24T12:18:11;2.88;;;1.70;;
58384;SDS011;44185;47.844;8.966;2023-04-24T12:20:37;2.78;;;1.77;;
58384;SDS011;44185;47.844;8.966;2023-04-24T12:23:03;3.97;;;1.92;;
58384;SDS011;44185;47.844;8.966;2023-04-24T12:25:29;1.63;;;1.52;;
58384;SDS011;44185;47.844;8.966;2023-04-24T12:28:08;3.00;;;1.85;;
58384;SDS011;44185;47.844;8.966;2023-04-24T12:30:38;3.08;;;1.58;;
58384;SDS011;44185;47.844;8.966;2023-04-24T12:33:05;2.43;;;1.67;;
58384;SDS011;44185;47.844;8.966;2023-04-24T12:35:31;2.00;;;1.70;;
58384;SDS011;44185;47.844;8.966;2023-04-24T12:38:06;3.10;;;1.83;;
58384;SDS011;44185;47.844;8.966;2023-04-24T12:40:31;2.97;;;1.42;;
58384;SDS011;44185;47.844;8.966;2023-04-24T12:42:57;2.35;;;1.63;;
58384;SDS011;44185;47.844;8.966;2023-04-24T12:45:23;2.00;;;1.58;;
58384;SDS011;44185;47.844;8.966;2023-04-24T12:47:49;2.03;;;1.50;;
58384;SDS011;44185;47.844;8.966;2023-04-24T12:50:14;2.88;;;1.48;;
58384;SDS011;44185;47.844;8.966;2023-04-24T12:52:40;3.88;;;1.90;;
58384;SDS011;44185;47.844;8.966;2023-04-24T12:55:08;2.85;;;1.65;;
58384;SDS011;44185;47.844;8.966;2023-04-24T12:57:34;1.65;;;1.50;;
58384;SDS011;44185;47.844;8.966;2023-04-24T13:00:01;2.88;;;1.50;;
58384;SDS011;44185;47.844;8.966;2023-04-24T13:02:28;2.42;;;1.10;;
58384;SDS011;44185;47.844;8.966;2023-04-24T13:04:54;1.55;;;1.42;;
58384;SDS011;44185;47.844;8.966;2023-04-24T13:07:20;2.80;;;1.80;;
58384;SDS011;44185;47.844;8.966;2023-04-24T13:09:47;4.00;;;1.48;;
58384;SDS011;44185;47.844;8.966;2023-04-24T13:12:14;1.40;;;1.30;;
58384;SDS011;44185;47.844;8.966;2023-04-24T13:14:40;1.48;;;1.38;;
58384;SDS011;44185;47.844;8.966;2023-04-24T13:17:06;3.92;;;1.80;;
58384;SDS011;44185;47.844;8.966;2023-04-24T13:19:35;2.80;;;1.80;;
58384;SDS011;44185;47.844;8.966;2023-04-24T13:22:01;1.98;;;1.70;;
58384;SDS011;44185;47.844;8.966;2023-04-24T13:24:27;2.95;;;1.67;;
58384;SDS011;44185;47.844;8.966;2023-04-24T13:26:52;2.67;;;1.60;;
58384;SDS011;44185;47.844;8.966;2023-04-24T13:29:20;1.88;;;1.77;;
58384;SDS011;44185;47.844;8.966;2023-04-24T13:31:45;3.83;;;1.67;;
58384;SDS011;44185;47.844;8.966;2023-04-24T13:34:11;1.38;;;1.20;;
58384;SDS011;44185;47.844;8.966;2023-04-24T13:36:37;1.70;;;1.60;;
58384;SDS011;44185;47.844;8.966;2023-04-24T13:39:02;2.85;;;1.50;;
58384;SDS011;44185;47.844;8.966;2023-04-24T13:41:30;2.38;;;1.63;;
58384;SDS011;44185;47.844;8.966;2023-04-24T13:43:55;2.58;;;1.50;;
58384;SDS011;44185;47.844;8.966;2023-04-24T13:46:22;1.70;;;1.50;;
58384;SDS011;44185;47.844;8.966;2023-04-24T13:48:47;1.83;;;1.40;;
58384;SDS011;44185;47.844;8.966;2023-04-24T13:51:13;1.77;;;1.50;;
58384;SDS011;44185;47.844;8.966;2023-04-24T13:53:38;1.60;;;1.50;;
58384;SDS011;44185;47.844;8.966;2023-04-24T13:56:04;1.85;;;1.60;;
58384;SDS011;44185;47.844;8.966;2023-04-24T13:58:29;3.33;;;1.67;;
58384;SDS011;44185;47.844;8.966;2023-04-24T14:00:55;1.70;;;1.60;;
58384;SDS011;44185;47.844;8.966;2023-04-24T14:03:22;2.97;;;2.08;;
58384;SDS011;44185;47.844;8.966;2023-04-24T14:05:47;2.05;;;1.45;;
58384;SDS011;44185;47.844;8.966;2023-04-24T14:08:13;1.30;;;1.17;;
58384;SDS011;44185;47.844;8.966;2023-04-24T14:10:38;2.03;;;1.25;;
58384;SDS011;44185;47.844;8.966;2023-04-24T14:13:04;2.13;;;1.20;;
58384;SDS011;44185;47.844;8.966;2023-04-24T14:15:29;3.10;;;1.70;;
58384;SDS011;44185;47.844;8.966;2023-04-24T14:17:55;2.17;;;1.30;;
58384;SDS011;44185;47.844;8.966;2023-04-24T14:20:22;1.98;;;1.80;;
58384;SDS011;44185;47.844;8.966;2023-04-24T14:22:48;1.95;;;1.30;;
58384;SDS011;44185;47.844;8.966;2023-04-24T14:25:13;2.15;;;1.70;;
58384;SDS011;44185;47.844;8.966;2023-04-24T14:27:39;2.17;;;1.92;;
58384;SDS011;44185;47.844;8.966;2023-04-24T14:30:05;3.15;;;2.15;;
58384;SDS011;44185;47.844;8.966;2023-04-24T14:32:31;1.90;;;1.60;;
58384;SDS011;44185;47.844;8.966;2023-04-24T14:34:56;3.05;;;1.60;;
58384;SDS011;44185;47.844;8.966;2023-04-24T14:37:23;1.60;;;1.50;;
58384;SDS011;44185;47.844;8.966;2023-04-24T14:39:49;4.55;;;1.95;;
58384;SDS011;44185;47.844;8.966;2023-04-24T14:42:14;2.53;;;1.67;;
58384;SDS011;44185;47.844;8.966;2023-04-24T14:44:40;1.30;;;1.20;;